Time;durP1;ratioP1;P1;durP2;ratioP2;P2;SDS_P1;SDS_P2;PMS_P1;PMS_P2;Temp;Humidity;BMP_temperature;BMP_pressure;BME280_temperature;BME280_humidity;BME280_pressure;Samples;Min_cycle;Max_cycle;Signal;HPM_P1;HPM_P2
2021/03/11 00:00:52;;;;;;;13.52;4.25;;;;;;;;;;5094401;28;20028;-51
2021/03/11 00:03:19;;;;;;;17.50;7.10;;;;;;;;;;5094718;28;20024;-51
2021/03/11 00:05:45;;;;;;;17.25;7.30;;;;;;;;;;5098786;28;20328;-51
2021/03/11 00:08:11;;;;;;;11.98;5.78;;;;;;;;;;5114087;28;20059;-51
2021/03/11 00:10:37;;;;;;;11.55;5.05;;;;;;;;;;5114563;28;20031;-51
2021/03/11 00:13:07;;;;;;;13.80;5.60;;;;;;;;;;5114614;28;20054;-51
2021/03/11 00:15:34;;;;;;;14.95;6.53;;;;;;;;;;5114188;28;20028;-51
2021/03/11 00:18:00;;;;;;;11.65;5.43;;;;;;;;;;5112488;28;20389;-51
2021/03/11 00:20:27;;;;;;;10.93;5.13;;;;;;;;;;5113903;28;20076;-51
2021/03/11 00:22:54;;;;;;;15.82;7.15;;;;;;;;;;5114159;28;20027;-51
2021/03/11 00:25:21;;;;;;;11.35;5.53;;;;;;;;;;5114306;28;20028;-50
2021/03/11 00:27:47;;;;;;;12.38;4.82;;;;;;;;;;5112202;28;20031;-51
2021/03/11 00:30:14;;;;;;;13.82;5.85;;;;;;;;;;5114395;28;20026;-50
2021/03/11 00:32:40;;;;;;;13.50;6.55;;;;;;;;;;5113987;28;20437;-51
2021/03/11 00:35:07;;;;;;;14.90;5.70;;;;;;;;;;5112047;28;20020;-51
2021/03/11 00:37:33;;;;;;;12.20;5.82;;;;;;;;;;5111616;27;20523;-51
2021/03/11 00:39:59;;;;;;;10.38;5.55;;;;;;;;;;5114381;28;20027;-51
2021/03/11 00:42:26;;;;;;;12.73;4.95;;;;;;;;;;5112942;28;20123;-51
2021/03/11 00:44:52;;;;;;;12.55;5.88;;;;;;;;;;5114250;28;20035;-50
2021/03/11 00:47:19;;;;;;;12.98;6.00;;;;;;;;;;5111701;28;20016;-51
2021/03/11 00:49:45;;;;;;;12.32;6.57;;;;;;;;;;5113919;28;20028;-51
2021/03/11 00:52:14;;;;;;;16.88;7.25;;;;;;;;;;5111871;28;20080;-50
2021/03/11 00:54:40;;;;;;;18.17;8.07;;;;;;;;;;5111076;28;20028;-51
2021/03/11 00:57:06;;;;;;;17.15;6.93;;;;;;;;;;5093458;28;20031;-50
2021/03/11 00:59:32;;;;;;;21.58;8.48;;;;;;;;;;5094507;28;20409;-51
2021/03/11 01:01:59;;;;;;;13.05;6.60;;;;;;;;;;5093198;28;20554;-51
2021/03/11 01:04:25;;;;;;;14.20;7.07;;;;;;;;;;5093342;28;20450;-51
2021/03/11 01:06:51;;;;;;;12.25;6.75;;;;;;;;;;5092717;28;20141;-51
2021/03/11 01:09:17;;;;;;;13.60;6.88;;;;;;;;;;5106149;28;20028;-50
2021/03/11 01:11:43;;;;;;;20.20;7.28;;;;;;;;;;5113602;28;20035;-51
2021/03/11 01:14:09;;;;;;;17.13;7.32;;;;;;;;;;5113350;28;20024;-51
2021/03/11 01:16:35;;;;;;;16.40;7.30;;;;;;;;;;5113393;28;20177;-50
2021/03/11 01:19:01;;;;;;;18.25;7.20;;;;;;;;;;5111437;28;20095;-51
2021/03/11 01:21:28;;;;;;;18.77;7.57;;;;;;;;;;5113170;28;20189;-51
2021/03/11 01:23:53;;;;;;;23.55;7.68;;;;;;;;;;5102388;28;20024;-51
2021/03/11 01:26:19;;;;;;;12.98;6.05;;;;;;;;;;5093009;28;20035;-51
2021/03/11 01:28:45;;;;;;;17.65;7.63;;;;;;;;;;5092964;28;20057;-51
2021/03/11 01:31:11;;;;;;;11.65;5.95;;;;;;;;;;5094117;28;20032;-51
2021/03/11 01:33:37;;;;;;;15.15;6.63;;;;;;;;;;5093165;28;20023;-51
2021/03/11 01:36:04;;;;;;;16.98;7.22;;;;;;;;;;5093049;28;20058;-50
2021/03/11 01:38:30;;;;;;;15.48;6.53;;;;;;;;;;5092743;28;20040;-51
2021/03/11 01:40:56;;;;;;;18.23;7.18;;;;;;;;;;5094167;28;20064;-51
2021/03/11 01:43:22;;;;;;;18.60;7.40;;;;;;;;;;5092722;28;20028;-50
2021/03/11 01:45:48;;;;;;;16.92;8.38;;;;;;;;;;5092983;28;20105;-51
2021/03/11 01:48:14;;;;;;;16.13;7.63;;;;;;;;;;5092134;28;20426;-51
2021/03/11 01:50:40;;;;;;;14.20;7.32;;;;;;;;;;5093869;28;20368;-51
2021/03/11 01:53:06;;;;;;;21.33;6.80;;;;;;;;;;5094626;28;20024;-51
2021/03/11 01:55:33;;;;;;;13.73;6.88;;;;;;;;;;5096709;28;20350;-51
2021/03/11 01:57:59;;;;;;;12.07;5.78;;;;;;;;;;5096268;28;20437;-51
2021/03/11 02:00:25;;;;;;;13.45;6.25;;;;;;;;;;5096679;28;20028;-51
2021/03/11 02:02:52;;;;;;;14.90;6.78;;;;;;;;;;5097594;28;20024;-51
2021/03/11 02:05:19;;;;;;;13.88;6.35;;;;;;;;;;5100113;28;20024;-51
2021/03/11 02:07:45;;;;;;;12.95;5.35;;;;;;;;;;5116884;28;20146;-51
2021/03/11 02:10:13;;;;;;;10.95;5.10;;;;;;;;;;5115437;28;20084;-51
2021/03/11 02:12:45;;;;;;;16.65;6.93;;;;;;;;;;5100195;28;20032;-51
2021/03/11 02:15:14;;;;;;;14.07;6.18;;;;;;;;;;5104243;28;20028;-51
2021/03/11 02:17:49;;;;;;;14.90;7.18;;;;;;;;;;5104399;28;20046;-51
2021/03/11 02:20:15;;;;;;;14.90;6.97;;;;;;;;;;5096451;28;20138;-51
2021/03/11 02:22:47;;;;;;;18.08;7.68;;;;;;;;;;5097451;28;20106;-51
2021/03/11 02:25:15;;;;;;;16.15;6.53;;;;;;;;;;5104943;28;20016;-51
2021/03/11 02:27:59;;;;;;;13.55;7.13;;;;;;;;;;5107583;28;20349;-51
2021/03/11 02:30:26;;;;;;;12.63;6.10;;;;;;;;;;5096174;28;20062;-51
2021/03/11 02:32:53;;;;;;;10.80;4.40;;;;;;;;;;5098016;28;20384;-51
2021/03/11 02:35:20;;;;;;;14.10;7.38;;;;;;;;;;5104782;28;20038;-51
2021/03/11 02:37:50;;;;;;;10.95;4.43;;;;;;;;;;5114065;28;20453;-51
2021/03/11 02:40:16;;;;;;;;;;;;;;;;;;5116717;28;20011;-50
2021/03/11 02:42:43;;;;;;;11.73;5.07;;;;;;;;;;5103379;28;19915;-51
2021/03/11 02:45:10;;;;;;;11.80;5.10;;;;;;;;;;5108152;28;20028;-51
2021/03/11 02:47:37;;;;;;;12.00;6.10;;;;;;;;;;5107543;28;20463;-50
2021/03/11 02:50:04;;;;;;;14.27;6.32;;;;;;;;;;5107820;28;20023;-51
2021/03/11 02:52:30;;;;;;;9.57;5.35;;;;;;;;;;5115989;28;20047;-51
2021/03/11 02:54:57;;;;;;;16.65;6.72;;;;;;;;;;5110025;28;20021;-51
2021/03/11 02:57:24;;;;;;;15.45;6.30;;;;;;;;;;5095160;28;20058;-51
2021/03/11 02:59:51;;;;;;;16.65;6.13;;;;;;;;;;5095534;28;20071;-51
2021/03/11 03:02:17;;;;;;;16.25;7.18;;;;;;;;;;5114698;28;20028;-51
2021/03/11 03:04:47;;;;;;;13.52;5.38;;;;;;;;;;5114479;28;20020;-51
2021/03/11 03:07:17;;;;;;;16.77;5.55;;;;;;;;;;5096324;28;20024;-51
2021/03/11 03:09:44;;;;;;;19.17;7.00;;;;;;;;;;5094990;28;20392;-50
2021/03/11 03:12:11;;;;;;;18.67;6.68;;;;;;;;;;5095388;28;20025;-51
2021/03/11 03:14:38;;;;;;;17.45;7.22;;;;;;;;;;5095237;28;20028;-50
2021/03/11 03:17:05;;;;;;;17.60;7.43;;;;;;;;;;5095915;28;20039;-51
2021/03/11 03:19:31;;;;;;;17.20;8.20;;;;;;;;;;5095126;28;20430;-51
2021/03/11 03:21:57;;;;;;;17.70;7.45;;;;;;;;;;5095422;28;20024;-51
2021/03/11 03:24:23;;;;;;;17.45;7.78;;;;;;;;;;5095182;28;20020;-51
2021/03/11 03:26:49;;;;;;;13.65;6.53;;;;;;;;;;5096306;28;20357;-51
2021/03/11 03:29:15;;;;;;;19.98;8.65;;;;;;;;;;5094543;28;20513;-51
2021/03/11 03:31:42;;;;;;;15.40;7.75;;;;;;;;;;5095069;28;20399;-51
2021/03/11 03:34:08;;;;;;;20.08;8.13;;;;;;;;;;5094793;28;20028;-51
2021/03/11 03:36:34;;;;;;;15.75;7.45;;;;;;;;;;5086907;28;20085;-51
2021/03/11 03:39:00;;;;;;;20.30;8.30;;;;;;;;;;5103143;28;20027;-51
2021/03/11 03:41:27;;;;;;;16.20;6.90;;;;;;;;;;5094364;28;20099;-51
2021/03/11 03:43:53;;;;;;;15.20;8.23;;;;;;;;;;5101325;28;20093;-50
2021/03/11 03:46:24;;;;;;;16.65;8.07;;;;;;;;;;5114776;28;20031;-51
2021/03/11 03:48:50;;;;;;;;;;;;;;;;;;5095959;28;20054;-51
2021/03/11 03:51:17;;;;;;;18.98;7.07;;;;;;;;;;5094466;28;20349;-50
2021/03/11 03:53:44;;;;;;;18.52;7.80;;;;;;;;;;5094893;28;20024;-51
2021/03/11 03:56:12;;;;;;;18.13;7.70;;;;;;;;;;5094256;28;20062;-51
2021/03/11 03:58:39;;;;;;;19.42;8.02;;;;;;;;;;5094885;28;20468;-50
2021/03/11 04:01:06;;;;;;;15.35;7.13;;;;;;;;;;5094588;28;20051;-50
2021/03/11 04:03:32;;;;;;;20.30;7.97;;;;;;;;;;5094479;28;20016;-50
2021/03/11 04:05:58;;;;;;;17.10;8.13;;;;;;;;;;5094301;28;20032;-51
2021/03/11 04:08:25;;;;;;;16.80;7.13;;;;;;;;;;5094417;28;20453;-51
2021/03/11 04:10:51;;;;;;;20.10;7.90;;;;;;;;;;5114694;28;20073;-51
2021/03/11 04:13:18;;;;;;;19.40;8.27;;;;;;;;;;5096920;28;20394;-51
2021/03/11 04:15:44;;;;;;;18.40;7.57;;;;;;;;;;5093921;28;20458;-51
2021/03/11 04:18:12;;;;;;;17.98;7.97;;;;;;;;;;5093815;28;20038;-50
2021/03/11 04:20:38;;;;;;;15.80;7.03;;;;;;;;;;5095303;28;20028;-51
2021/03/11 04:23:05;;;;;;;22.42;8.75;;;;;;;;;;5094013;28;20365;-51
2021/03/11 04:25:31;;;;;;;17.42;8.15;;;;;;;;;;5094061;28;20020;-51
2021/03/11 04:27:57;;;;;;;27.15;8.18;;;;;;;;;;5093233;28;20016;-50
2021/03/11 04:30:24;;;;;;;21.13;8.13;;;;;;;;;;5094909;28;20450;-51
2021/03/11 04:32:50;;;;;;;15.98;8.13;;;;;;;;;;5093725;28;20027;-50
2021/03/11 04:35:16;;;;;;;16.80;7.57;;;;;;;;;;5093683;28;20039;-50
2021/03/11 04:37:43;;;;;;;17.98;8.30;;;;;;;;;;5093219;28;20375;-51
2021/03/11 04:40:09;;;;;;;17.50;7.55;;;;;;;;;;5094860;28;20024;-51
2021/03/11 04:42:36;;;;;;;19.17;8.52;;;;;;;;;;5093083;28;20039;-51
2021/03/11 04:45:03;;;;;;;16.35;7.55;;;;;;;;;;5093902;28;20030;-51
2021/03/11 04:47:30;;;;;;;20.50;6.97;;;;;;;;;;5093303;28;20028;-51
2021/03/11 04:49:57;;;;;;;18.17;7.55;;;;;;;;;;5093657;28;20020;-51
2021/03/11 04:52:23;;;;;;;17.48;7.72;;;;;;;;;;5094546;28;20577;-51
2021/03/11 04:54:49;;;;;;;16.40;6.80;;;;;;;;;;5093229;28;20032;-50
2021/03/11 04:57:15;;;;;;;18.58;7.35;;;;;;;;;;5092997;28;20042;-51
2021/03/11 04:59:41;;;;;;;18.35;6.72;;;;;;;;;;5093677;28;20016;-51
2021/03/11 05:02:10;;;;;;;16.58;7.47;;;;;;;;;;5094465;28;20028;-50
2021/03/11 05:04:36;;;;;;;19.88;7.35;;;;;;;;;;5093327;28;20030;-51
2021/03/11 05:07:02;;;;;;;16.38;7.03;;;;;;;;;;5092793;28;20077;-51
2021/03/11 05:09:28;;;;;;;19.00;7.78;;;;;;;;;;5093059;28;20073;-51
2021/03/11 05:11:54;;;;;;;20.02;6.55;;;;;;;;;;5101375;28;20031;-51
2021/03/11 05:14:20;;;;;;;14.00;6.35;;;;;;;;;;5093239;28;20020;-51
2021/03/11 05:16:46;;;;;;;14.45;5.65;;;;;;;;;;5093238;28;20054;-51
2021/03/11 05:19:12;;;;;;;9.93;2.63;;;;;;;;;;5092926;28;20012;-50
2021/03/11 05:21:38;;;;;;;16.38;6.32;;;;;;;;;;5093317;28;20404;-50
2021/03/11 05:24:04;;;;;;;12.63;5.10;;;;;;;;;;5093978;28;20033;-51
2021/03/11 05:26:30;;;;;;;10.77;4.10;;;;;;;;;;5093276;28;20031;-51
2021/03/11 05:28:56;;;;;;;13.38;5.88;;;;;;;;;;5096162;28;20016;-51
2021/03/11 05:31:22;;;;;;;3.28;1.38;;;;;;;;;;5097607;28;20081;-51
2021/03/11 05:33:48;;;;;;;18.13;7.53;;;;;;;;;;5098488;28;20051;-51
2021/03/11 05:36:14;;;;;;;9.43;3.47;;;;;;;;;;5099509;28;20553;-51
2021/03/11 05:38:43;;;;;;;17.25;6.60;;;;;;;;;;5116535;28;20030;-51
2021/03/11 05:41:10;;;;;;;1.95;0.95;;;;;;;;;;5118037;28;20019;-50
2021/03/11 05:43:36;;;;;;;8.00;3.95;;;;;;;;;;5116072;28;20035;-50
2021/03/11 05:46:03;;;;;;;3.22;2.03;;;;;;;;;;5117582;28;20063;-51
2021/03/11 05:48:30;;;;;;;8.45;4.00;;;;;;;;;;5117515;28;20023;-50
2021/03/11 05:50:56;;;;;;;8.00;2.97;;;;;;;;;;5117163;28;20421;-51
2021/03/11 05:53:22;;;;;;;13.63;4.70;;;;;;;;;;5116851;28;20024;-51
2021/03/11 05:55:49;;;;;;;14.05;4.82;;;;;;;;;;5115565;28;20063;-51
2021/03/11 05:58:18;;;;;;;8.98;3.42;;;;;;;;;;5117076;28;20031;-51
2021/03/11 06:00:44;;;;;;;0.95;0.73;;;;;;;;;;5115047;28;20360;-51
2021/03/11 06:03:11;;;;;;;11.02;3.65;;;;;;;;;;5117249;28;20031;-51
2021/03/11 06:05:37;;;;;;;7.03;4.35;;;;;;;;;;5108059;28;20027;-50
2021/03/11 06:08:06;;;;;;;9.60;4.00;;;;;;;;;;5096566;28;20077;-51
2021/03/11 06:10:32;;;;;;;4.80;1.98;;;;;;;;;;5096421;28;20369;-51
2021/03/11 06:12:59;;;;;;;11.77;5.25;;;;;;;;;;5094817;28;20024;-51
2021/03/11 06:15:31;;;;;;;4.68;2.80;;;;;;;;;;5100439;28;20035;-51
2021/03/11 06:17:58;;;;;;;5.85;2.25;;;;;;;;;;5116751;28;20027;-51
2021/03/11 06:20:24;;;;;;;1.08;0.93;;;;;;;;;;5116354;28;20024;-51
2021/03/11 06:22:50;;;;;;;12.52;4.13;;;;;;;;;;5116808;28;20023;-51
2021/03/11 06:25:17;;;;;;;11.38;4.32;;;;;;;;;;5114557;27;20020;-51
2021/03/11 06:27:43;;;;;;;6.90;4.00;;;;;;;;;;5116628;28;20031;-50
2021/03/11 06:30:28;;;;;;;8.18;3.78;;;;;;;;;;5116312;28;20042;-50
2021/03/11 06:32:55;;;;;;;12.50;3.33;;;;;;;;;;5112162;28;20374;-51
2021/03/11 06:35:21;;;;;;;4.97;2.50;;;;;;;;;;5096002;28;20424;-51
2021/03/11 06:37:48;;;;;;;12.00;4.70;;;;;;;;;;5113732;28;20111;-51
2021/03/11 06:40:14;;;;;;;8.85;2.28;;;;;;;;;;5116135;27;20046;-51
2021/03/11 06:42:40;;;;;;;2.45;1.73;;;;;;;;;;5116383;28;20066;-51
2021/03/11 06:45:42;;;;;;;13.27;2.85;;;;;;;;;;5116265;28;20044;-51
2021/03/11 06:48:20;;;;;;;3.20;0.98;;;;;;;;;;5057334;28;20131;-51
2021/03/11 06:50:46;;;;;;;1.33;1.17;;;;;;;;;;5052974;28;20094;-51
2021/03/11 06:53:12;;;;;;;4.25;1.92;;;;;;;;;;5036548;28;20390;-51
2021/03/11 06:55:38;;;;;;;0.68;0.68;;;;;;;;;;5052959;28;20113;-51
2021/03/11 06:58:17;;;;;;;2.45;1.05;;;;;;;;;;5055454;28;20039;-51
2021/03/11 07:00:43;;;;;;;1.08;0.98;;;;;;;;;;5058751;28;20422;-51
2021/03/11 07:03:09;;;;;;;1.17;1.08;;;;;;;;;;5065037;28;20041;-51
2021/03/11 07:05:39;;;;;;;6.03;1.67;;;;;;;;;;5062450;28;20051;-51
2021/03/11 07:08:16;;;;;;;5.28;2.13;;;;;;;;;;5061055;28;20056;-51
2021/03/11 07:10:43;;;;;;;1.75;1.45;;;;;;;;;;5066325;28;20510;-51
2021/03/11 07:13:09;;;;;;;3.92;1.67;;;;;;;;;;5058503;28;20048;-51
2021/03/11 07:15:37;;;;;;;1.92;1.67;;;;;;;;;;5055893;28;20082;-51
2021/03/11 07:18:06;;;;;;;1.38;1.27;;;;;;;;;;5070088;28;20240;-51
2021/03/11 07:20:34;;;;;;;10.05;3.58;;;;;;;;;;5057591;28;20025;-51
2021/03/11 07:23:08;;;;;;;6.88;2.45;;;;;;;;;;5099945;28;20122;-50
2021/03/11 07:25:41;;;;;;;5.03;2.15;;;;;;;;;;5101789;28;20972;-51
2021/03/11 07:28:09;;;;;;;2.67;1.77;;;;;;;;;;5097366;28;20131;-51
2021/03/11 07:30:51;;;;;;;3.38;1.85;;;;;;;;;;5096321;28;20024;-50
2021/03/11 07:33:19;;;;;;;4.60;1.50;;;;;;;;;;5110190;28;20050;-51
2021/03/11 07:35:47;;;;;;;0.45;0.45;;;;;;;;;;5101920;28;20421;-51
2021/03/11 07:38:19;;;;;;;1.25;1.10;;;;;;;;;;5096702;27;20027;-51
2021/03/11 07:40:48;;;;;;;3.03;1.42;;;;;;;;;;5098771;28;20028;-51
2021/03/11 07:43:14;;;;;;;0.98;0.88;;;;;;;;;;5111557;28;20122;-50
2021/03/11 07:45:41;;;;;;;2.85;1.77;;;;;;;;;;5098312;28;20027;-51
2021/03/11 07:48:09;;;;;;;6.43;2.85;;;;;;;;;;5097798;28;20023;-51
2021/03/11 07:50:35;;;;;;;3.95;1.88;;;;;;;;;;5102825;28;20650;-51
2021/03/11 07:53:03;;;;;;;2.28;1.70;;;;;;;;;;5110234;28;20028;-51
2021/03/11 07:55:29;;;;;;;2.47;1.33;;;;;;;;;;5104185;27;20513;-51
2021/03/11 07:57:57;;;;;;;4.30;2.47;;;;;;;;;;5107367;28;20032;-51
2021/03/11 08:00:27;;;;;;;1.48;1.38;;;;;;;;;;5104938;28;20445;-51
2021/03/11 08:02:56;;;;;;;6.97;2.95;;;;;;;;;;5102948;28;20039;-50
2021/03/11 08:05:28;;;;;;;0.88;0.88;;;;;;;;;;5097663;28;20449;-51
2021/03/11 08:08:12;;;;;;;5.10;2.10;;;;;;;;;;5097633;28;20460;-51
2021/03/11 08:10:45;;;;;;;3.10;1.67;;;;;;;;;;5106054;28;20031;-51
2021/03/11 08:13:26;;;;;;;0.55;0.55;;;;;;;;;;5106031;28;20019;-50
2021/03/11 08:15:52;;;;;;;1.55;0.93;;;;;;;;;;5106746;28;20040;-51
2021/03/11 08:18:33;;;;;;;1.73;1.25;;;;;;;;;;5100387;28;20028;-51
2021/03/11 08:21:00;;;;;;;1.83;1.05;;;;;;;;;;5109871;28;20119;-51
2021/03/11 08:23:30;;;;;;;5.45;2.63;;;;;;;;;;5095952;28;20074;-51
2021/03/11 08:25:56;;;;;;;2.35;1.50;;;;;;;;;;5100752;28;20217;-51
2021/03/11 08:28:25;;;;;;;3.45;1.40;;;;;;;;;;5110790;28;20027;-50
2021/03/11 08:30:54;;;;;;;0.63;0.63;;;;;;;;;;5110755;28;20032;-51
2021/03/11 08:33:20;;;;;;;0.98;0.90;;;;;;;;;;5097322;28;20024;-51
2021/03/11 08:35:55;;;;;;;2.17;1.15;;;;;;;;;;5097133;28;20085;-51
2021/03/11 08:38:21;;;;;;;1.30;0.95;;;;;;;;;;5101512;28;20092;-51
2021/03/11 08:41:01;;;;;;;2.90;2.00;;;;;;;;;;5097134;28;20032;-51
2021/03/11 08:43:27;;;;;;;;;;;;;;;;;;5096097;28;20039;-51
2021/03/11 08:45:53;;;;;;;4.35;2.28;;;;;;;;;;5103113;28;19995;-51
2021/03/11 08:48:20;;;;;;;0.70;0.65;;;;;;;;;;5103995;28;20034;-51
2021/03/11 08:50:47;;;;;;;4.55;1.60;;;;;;;;;;5109873;28;20027;-51
2021/03/11 08:53:33;;;;;;;3.58;1.63;;;;;;;;;;5096468;28;20092;-51
2021/03/11 08:55:59;;;;;;;1.27;0.80;;;;;;;;;;5103604;28;20458;-51
2021/03/11 08:58:28;;;;;;;1.30;1.20;;;;;;;;;;5103540;28;20024;-51
2021/03/11 09:01:02;;;;;;;3.85;1.65;;;;;;;;;;5098782;28;20062;-51
2021/03/11 09:03:37;;;;;;;0.35;0.35;;;;;;;;;;5108573;28;20331;-51
2021/03/11 09:06:03;;;;;;;2.15;1.33;;;;;;;;;;5102072;28;20035;-51
2021/03/11 09:08:30;;;;;;;3.33;1.52;;;;;;;;;;5109729;28;20016;-51
2021/03/11 09:11:12;;;;;;;1.90;1.25;;;;;;;;;;5098106;28;20460;-51
2021/03/11 09:13:44;;;;;;;2.85;1.20;;;;;;;;;;5093093;28;20110;-51
2021/03/11 09:16:11;;;;;;;0.70;0.70;;;;;;;;;;5100363;28;20126;-51
2021/03/11 09:18:37;;;;;;;2.70;1.23;;;;;;;;;;5098831;28;20051;-51
2021/03/11 09:21:04;;;;;;;0.45;0.45;;;;;;;;;;5093504;28;20081;-51
2021/03/11 09:23:41;;;;;;;4.22;1.50;;;;;;;;;;5094901;28;20043;-51
2021/03/11 09:26:08;;;;;;;3.17;1.50;;;;;;;;;;5102269;28;20076;-51
2021/03/11 09:28:35;;;;;;;0.85;0.82;;;;;;;;;;5096886;28;20020;-51
2021/03/11 09:31:01;;;;;;;2.95;1.90;;;;;;;;;;5097326;28;20027;-51
2021/03/11 09:33:27;;;;;;;1.45;0.82;;;;;;;;;;5097316;28;20047;-51
2021/03/11 09:35:54;;;;;;;11.20;2.30;;;;;;;;;;5097069;28;20482;-51
2021/03/11 09:38:20;;;;;;;18.25;2.58;;;;;;;;;;5108670;28;20020;-51
2021/03/11 09:40:47;;;;;;;4.07;1.70;;;;;;;;;;5098814;28;20228;-50
2021/03/11 09:43:16;;;;;;;0.40;0.40;;;;;;;;;;5095065;28;20119;-51
2021/03/11 09:45:42;;;;;;;1.65;1.13;;;;;;;;;;5107445;28;20020;-51
2021/03/11 09:48:18;;;;;;;1.45;1.23;;;;;;;;;;5098324;28;20492;-51
2021/03/11 09:50:58;;;;;;;0.50;0.50;;;;;;;;;;5101153;28;20059;-50
2021/03/11 09:53:25;;;;;;;0.70;0.70;;;;;;;;;;5098659;28;20323;-51
2021/03/11 09:55:55;;;;;;;0.70;0.70;;;;;;;;;;5098071;28;20028;-51
2021/03/11 09:58:21;;;;;;;3.63;1.30;;;;;;;;;;5100971;28;20583;-51
2021/03/11 10:00:49;;;;;;;0.63;0.60;;;;;;;;;;5101493;28;20026;-51
2021/03/11 10:03:16;;;;;;;3.15;1.15;;;;;;;;;;5099753;28;20388;-51
2021/03/11 10:05:43;;;;;;;1.85;0.75;;;;;;;;;;5097957;28;20056;-51
2021/03/11 10:08:09;;;;;;;3.33;1.13;;;;;;;;;;5092283;28;20043;-51
2021/03/11 10:10:35;;;;;;;2.88;1.20;;;;;;;;;;5093283;28;20107;-51
2021/03/11 10:13:01;;;;;;;1.77;1.25;;;;;;;;;;5108560;28;20019;-51
2021/03/11 10:15:28;;;;;;;2.00;1.10;;;;;;;;;;5107737;28;20040;-50
2021/03/11 10:18:09;;;;;;;0.93;0.80;;;;;;;;;;5101635;28;20149;-51
2021/03/11 10:20:36;;;;;;;1.67;1.13;;;;;;;;;;5107280;27;20024;-51
2021/03/11 10:23:18;;;;;;;2.00;1.05;;;;;;;;;;5107504;28;20074;-51
2021/03/11 10:25:44;;;;;;;0.60;0.60;;;;;;;;;;5108377;28;20020;-51
2021/03/11 10:28:11;;;;;;;2.05;1.33;;;;;;;;;;5099453;28;20020;-51
2021/03/11 10:30:40;;;;;;;2.67;0.75;;;;;;;;;;5104745;28;20368;-51
2021/03/11 10:33:06;;;;;;;2.40;1.38;;;;;;;;;;5111771;28;20020;-51
2021/03/11 10:35:39;;;;;;;2.13;1.10;;;;;;;;;;5098186;28;20039;-51
2021/03/11 10:38:16;;;;;;;9.25;1.02;;;;;;;;;;5103677;28;20011;-51
2021/03/11 10:40:42;;;;;;;0.82;0.73;;;;;;;;;;5102992;28;20047;-51
2021/03/11 10:43:18;;;;;;;3.83;1.30;;;;;;;;;;5096805;28;20101;-51
2021/03/11 10:45:44;;;;;;;2.33;1.10;;;;;;;;;;5101796;28;20445;-51
2021/03/11 10:48:11;;;;;;;0.50;0.50;;;;;;;;;;5107150;28;20446;-51
2021/03/11 10:50:58;;;;;;;4.60;1.08;;;;;;;;;;5103242;27;20032;-51
2021/03/11 10:53:44;;;;;;;2.13;1.33;;;;;;;;;;5104434;28;20132;-51
2021/03/11 10:56:10;;;;;;;3.90;0.77;;;;;;;;;;5103131;27;20339;-51
2021/03/11 10:58:36;;;;;;;1.33;0.95;;;;;;;;;;5107331;28;20027;-51
2021/03/11 11:01:07;;;;;;;0.80;0.60;;;;;;;;;;5099686;28;20038;-51
2021/03/11 11:03:33;;;;;;;1.60;1.30;;;;;;;;;;5097444;28;20097;-51
2021/03/11 11:05:59;;;;;;;1.88;0.85;;;;;;;;;;5096659;28;20376;-51
2021/03/11 11:08:25;;;;;;;0.82;0.82;;;;;;;;;;5100488;28;20043;-51
2021/03/11 11:10:51;;;;;;;2.08;1.33;;;;;;;;;;5109492;28;20073;-51
2021/03/11 11:13:17;;;;;;;0.60;0.60;;;;;;;;;;5101072;27;20028;-51
2021/03/11 11:15:43;;;;;;;0.68;0.68;;;;;;;;;;5095489;28;20342;-51
2021/03/11 11:18:09;;;;;;;1.00;0.95;;;;;;;;;;5103218;28;20051;-51
2021/03/11 11:20:36;;;;;;;5.93;1.83;;;;;;;;;;5103112;28;20067;-51
2021/03/11 11:23:03;;;;;;;2.10;0.90;;;;;;;;;;5105737;28;20020;-51
2021/03/11 11:25:29;;;;;;;10.32;0.75;;;;;;;;;;5096058;28;20069;-51
2021/03/11 11:27:55;;;;;;;1.88;0.95;;;;;;;;;;5100716;28;20074;-51
2021/03/11 11:30:21;;;;;;;1.88;0.77;;;;;;;;;;5097908;28;20335;-51
2021/03/11 11:32:47;;;;;;;1.38;0.90;;;;;;;;;;5101038;28;20044;-51
2021/03/11 11:35:15;;;;;;;0.30;0.30;;;;;;;;;;5100707;28;20020;-51
2021/03/11 11:37:42;;;;;;;0.82;0.82;;;;;;;;;;5092811;28;20039;-51
2021/03/11 11:40:08;;;;;;;4.00;0.85;;;;;;;;;;5093511;28;20028;-51
2021/03/11 11:42:34;;;;;;;1.15;0.90;;;;;;;;;;5094278;28;20484;-51
2021/03/11 11:45:00;;;;;;;0.20;0.20;;;;;;;;;;5100254;28;20020;-51
2021/03/11 11:47:26;;;;;;;0.60;0.60;;;;;;;;;;5098932;28;20028;-51
2021/03/11 11:49:52;;;;;;;0.47;0.40;;;;;;;;;;5096560;28;20035;-51
2021/03/11 11:52:18;;;;;;;1.75;0.85;;;;;;;;;;5102700;28;20028;-51
2021/03/11 11:54:44;;;;;;;2.53;1.00;;;;;;;;;;5096812;28;20028;-50
2021/03/11 11:57:10;;;;;;;0.80;0.80;;;;;;;;;;5099377;28;20071;-51
2021/03/11 11:59:36;;;;;;;0.43;0.43;;;;;;;;;;5110354;28;20016;-50
2021/03/11 12:02:02;;;;;;;1.45;0.63;;;;;;;;;;5104390;28;20012;-51
2021/03/11 12:04:29;;;;;;;0.52;0.52;;;;;;;;;;5102474;28;20449;-51
2021/03/11 12:06:55;;;;;;;0.40;0.40;;;;;;;;;;5098130;28;20032;-51
2021/03/11 12:09:21;;;;;;;9.57;1.38;;;;;;;;;;5104217;28;20031;-51
2021/03/11 12:11:47;;;;;;;1.67;1.20;;;;;;;;;;5101882;28;20028;-51
2021/03/11 12:14:13;;;;;;;0.90;0.70;;;;;;;;;;5098558;28;20019;-51
2021/03/11 12:16:39;;;;;;;0.68;0.68;;;;;;;;;;5101033;28;20054;-51
2021/03/11 12:19:06;;;;;;;1.75;0.80;;;;;;;;;;5107855;28;20433;-51
2021/03/11 12:21:32;;;;;;;1.17;0.70;;;;;;;;;;5108958;28;20024;-51
2021/03/11 12:23:59;;;;;;;1.85;0.90;;;;;;;;;;5100771;28;20141;-51
2021/03/11 12:26:25;;;;;;;0.63;0.63;;;;;;;;;;5102138;28;20072;-51
2021/03/11 12:28:51;;;;;;;1.25;0.80;;;;;;;;;;5103065;28;20110;-51
2021/03/11 12:31:17;;;;;;;4.78;0.70;;;;;;;;;;5101635;28;20595;-51
2021/03/11 12:33:43;;;;;;;0.77;0.60;;;;;;;;;;5103786;28;20027;-51
2021/03/11 12:36:10;;;;;;;0.80;0.80;;;;;;;;;;5104737;28;20031;-50
2021/03/11 12:38:37;;;;;;;0.52;0.52;;;;;;;;;;5101341;28;20449;-51
2021/03/11 12:41:03;;;;;;;0.55;0.55;;;;;;;;;;5107691;28;20045;-51
2021/03/11 12:43:29;;;;;;;0.50;0.50;;;;;;;;;;5094872;28;20056;-51
2021/03/11 12:45:55;;;;;;;1.50;0.63;;;;;;;;;;5097563;28;20065;-51
2021/03/11 12:48:21;;;;;;;0.50;0.50;;;;;;;;;;5101051;28;20480;-50
2021/03/11 12:50:48;;;;;;;3.42;0.88;;;;;;;;;;5108334;28;20050;-51
2021/03/11 12:53:15;;;;;;;0.50;0.50;;;;;;;;;;5098741;28;20024;-51
2021/03/11 12:55:42;;;;;;;0.63;0.50;;;;;;;;;;5095761;28;20450;-51
2021/03/11 12:58:07;;;;;;;2.35;0.65;;;;;;;;;;5095039;28;20602;-51
2021/03/11 13:00:33;;;;;;;7.63;0.68;;;;;;;;;;5101672;28;20031;-51
2021/03/11 13:02:59;;;;;;;4.95;0.77;;;;;;;;;;5102445;28;20020;-51
2021/03/11 13:05:25;;;;;;;0.85;0.60;;;;;;;;;;5098320;28;20032;-51
2021/03/11 13:07:51;;;;;;;1.27;0.82;;;;;;;;;;5099461;28;20031;-51
2021/03/11 13:10:18;;;;;;;1.27;1.05;;;;;;;;;;5097683;28;20031;-50
2021/03/11 13:12:44;;;;;;;0.57;0.57;;;;;;;;;;5101586;28;20113;-51
2021/03/11 13:15:14;;;;;;;1.05;0.68;;;;;;;;;;5100979;28;20016;-51
2021/03/11 13:17:40;;;;;;;5.60;1.00;;;;;;;;;;5097358;28;20126;-51
2021/03/11 13:20:06;;;;;;;0.73;0.70;;;;;;;;;;5104262;28;20086;-51
2021/03/11 13:22:33;;;;;;;0.98;0.70;;;;;;;;;;5099437;28;20484;-51
2021/03/11 13:24:59;;;;;;;0.70;0.70;;;;;;;;;;5106455;28;20019;-51
2021/03/11 13:27:25;;;;;;;1.10;0.60;;;;;;;;;;5107431;28;20372;-51
2021/03/11 13:29:51;;;;;;;1.02;0.80;;;;;;;;;;5099951;28;20034;-51
2021/03/11 13:32:17;;;;;;;1.10;1.00;;;;;;;;;;5096513;28;20020;-51
2021/03/11 13:34:43;;;;;;;0.52;0.40;;;;;;;;;;5095801;28;20365;-50
2021/03/11 13:37:09;;;;;;;0.70;0.70;;;;;;;;;;5108504;28;20031;-50
2021/03/11 13:39:35;;;;;;;0.75;0.75;;;;;;;;;;5095748;28;20026;-50
2021/03/11 13:42:01;;;;;;;1.02;0.93;;;;;;;;;;5098558;28;20016;-51
2021/03/11 13:44:27;;;;;;;2.38;0.98;;;;;;;;;;5102185;28;20507;-50
2021/03/11 13:46:53;;;;;;;1.17;1.02;;;;;;;;;;5097994;28;20036;-51
2021/03/11 13:49:19;;;;;;;1.75;0.82;;;;;;;;;;5102294;28;20027;-51
2021/03/11 13:51:45;;;;;;;0.50;0.50;;;;;;;;;;5105598;28;20020;-51
2021/03/11 13:54:12;;;;;;;1.33;0.88;;;;;;;;;;5105407;28;20524;-51
2021/03/11 13:56:38;;;;;;;2.60;1.02;;;;;;;;;;5101347;28;20043;-51
2021/03/11 13:59:05;;;;;;;1.55;1.08;;;;;;;;;;5109031;28;20016;-51
2021/03/11 14:01:31;;;;;;;1.63;0.98;;;;;;;;;;5099837;28;20031;-51
2021/03/11 14:03:57;;;;;;;1.23;0.90;;;;;;;;;;5108615;28;20016;-51
2021/03/11 14:06:24;;;;;;;1.95;0.98;;;;;;;;;;5106188;28;20072;-51
2021/03/11 14:08:50;;;;;;;0.85;0.73;;;;;;;;;;5114710;28;20027;-51
2021/03/11 14:11:16;;;;;;;0.50;0.50;;;;;;;;;;5098158;28;20064;-51
2021/03/11 14:13:42;;;;;;;0.65;0.60;;;;;;;;;;5111174;28;20259;-51
2021/03/11 14:16:09;;;;;;;0.47;0.47;;;;;;;;;;5103746;28;20052;-51
2021/03/11 14:18:36;;;;;;;0.38;0.38;;;;;;;;;;5109569;28;20443;-51
2021/03/11 14:21:02;;;;;;;1.52;0.88;;;;;;;;;;5104341;28;20353;-51
2021/03/11 14:23:28;;;;;;;0.40;0.40;;;;;;;;;;5099317;28;20030;-51
2021/03/11 14:25:54;;;;;;;0.88;0.88;;;;;;;;;;5108535;28;20024;-51
2021/03/11 14:28:20;;;;;;;0.75;0.70;;;;;;;;;;5103357;28;20095;-51
2021/03/11 14:30:46;;;;;;;0.52;0.52;;;;;;;;;;5100518;28;20032;-50
2021/03/11 14:33:13;;;;;;;0.57;0.57;;;;;;;;;;5111807;28;20111;-51
2021/03/11 14:35:39;;;;;;;0.20;0.20;;;;;;;;;;5099887;28;20476;-51
2021/03/11 14:38:05;;;;;;;0.63;0.60;;;;;;;;;;5112572;27;20108;-51
2021/03/11 14:40:31;;;;;;;0.98;0.55;;;;;;;;;;5105799;28;20055;-51